createdAt,value
2019-02-25T00:00:08.522Z,57.79
2019-02-25T00:01:08.538Z,58.62
2019-02-25T00:02:08.505Z,58.62
2019-02-25T00:03:08.509Z,57.68
2019-02-25T00:04:08.477Z,56.85
2019-02-25T00:05:08.468Z,56.44
2019-02-25T00:06:08.479Z,56.85
2019-02-25T00:07:08.447Z,57.68
2019-02-25T00:08:08.438Z,58.62
2019-02-25T00:09:08.421Z,57.06
2019-02-25T00:10:08.411Z,57.89
2019-02-25T00:11:08.426Z,57.17
2019-02-25T00:12:08.390Z,56.88
2019-02-25T00:13:08.380Z,56.78
2019-02-25T00:14:08.374Z,56.57
2019-02-25T00:15:08.357Z,56.47
2019-02-25T00:16:09.526Z,56.78
2019-02-25T00:17:08.359Z,56.88
2019-02-25T00:18:08.323Z,56.70
2019-02-25T00:19:08.313Z,56.70
2019-02-25T00:20:08.302Z,57.64
2019-02-25T00:21:08.290Z,56.81
2019-02-25T00:22:08.306Z,58.05
2019-02-25T00:23:08.268Z,56.81
2019-02-25T00:24:08.258Z,57.43
2019-02-25T00:25:08.250Z,57.32
2019-02-25T00:26:08.239Z,57.43
2019-02-25T00:27:08.251Z,56.91
2019-02-25T00:28:08.212Z,56.16
2019-02-25T00:29:08.204Z,55.43
2019-02-25T00:30:08.203Z,56.99
2019-02-25T00:31:08.178Z,55.22
2019-02-25T00:32:08.398Z,55.74
2019-02-25T00:33:08.156Z,54.06
2019-02-25T00:34:08.864Z,54.27
2019-02-25T00:35:08.135Z,53.33
2019-02-25T00:36:08.159Z,54.79
2019-02-25T00:37:08.136Z,52.51
2019-02-25T00:38:08.109Z,49.38
2019-02-25T00:39:08.089Z,49.58
2019-02-25T00:40:08.077Z,48.63
2019-02-25T00:41:08.066Z,48.73
2019-02-25T00:42:08.080Z,48.73
2019-02-25T00:43:08.051Z,48.40
2019-02-25T00:44:08.032Z,48.22
2019-02-25T00:45:08.029Z,49.85
2019-02-25T00:46:08.013Z,50.47
2019-02-25T00:47:08.025Z,51.71
2019-02-25T00:48:07.989Z,50.05
2019-02-25T00:49:07.977Z,51.40
2019-02-25T00:50:07.969Z,50.68
2019-02-25T00:51:07.955Z,52.85
2019-02-25T00:52:07.968Z,49.87
2019-02-25T00:53:07.930Z,50.29
2019-02-25T00:54:07.920Z,52.67
2019-02-25T00:55:07.911Z,52.67
2019-02-25T00:56:07.898Z,53.83
2019-02-25T00:57:09.013Z,55.18
2019-02-25T00:58:07.878Z,55.79
2019-02-25T00:59:07.864Z,55.18
2019-02-25T01:00:07.855Z,55.62
2019-02-25T01:01:07.845Z,55.10
2019-02-25T01:02:07.857Z,55.20
2019-02-25T01:03:07.822Z,55.64
2019-02-25T01:04:07.809Z,55.54
2019-02-25T01:05:07.798Z,57.81
2019-02-25T01:06:07.800Z,56.91
2019-02-25T01:07:07.779Z,55.66
2019-02-25T01:08:07.952Z,56.49
2019-02-25T01:09:07.752Z,56.18
2019-02-25T01:10:07.745Z,55.48
2019-02-25T01:11:07.731Z,57.35
2019-02-25T01:12:07.722Z,56.62
2019-02-25T01:13:07.735Z,57.04
2019-02-25T01:14:07.698Z,56.73
2019-02-25T01:15:07.687Z,56.00
2019-02-25T01:16:07.675Z,57.04
2019-02-25T01:17:07.669Z,56.83
2019-02-25T01:18:07.677Z,58.07
2019-02-25T01:19:07.641Z,58.39
2019-02-25T01:20:07.630Z,57.07
2019-02-25T01:21:07.618Z,57.87
2019-02-25T01:22:07.606Z,57.07
2019-02-25T01:23:07.622Z,58.52
2019-02-25T01:24:07.592Z,58.31
2019-02-25T01:25:07.575Z,58.83
2019-02-25T01:26:07.564Z,59.14
2019-02-25T01:27:07.552Z,58.83
2019-02-25T01:28:07.572Z,59.38
2019-02-25T01:29:07.530Z,59.27
2019-02-25T01:30:07.520Z,60.00
2019-02-25T01:31:07.506Z,60.31
2019-02-25T01:32:07.496Z,60.34
2019-02-25T01:33:07.510Z,60.41
2019-02-25T01:34:07.476Z,60.41
2019-02-25T01:35:07.463Z,60.10
2019-02-25T01:36:07.450Z,59.79
2019-02-25T01:37:07.442Z,59.19
2019-02-25T01:38:07.452Z,59.61
2019-02-25T01:39:07.417Z,59.92
2019-02-25T01:40:07.405Z,60.34
2019-02-25T01:41:07.395Z,60.68
2019-02-25T01:42:07.387Z,60.86
2019-02-25T01:43:07.401Z,60.05
2019-02-25T01:44:07.362Z,60.99
2019-02-25T01:45:07.353Z,60.88
2019-02-25T01:46:07.342Z,61.82
2019-02-25T01:47:07.328Z,60.68
2019-02-25T01:48:07.348Z,60.71
2019-02-25T01:49:07.306Z,61.54
2019-02-25T01:50:07.295Z,61.54
2019-02-25T01:51:07.282Z,62.05
2019-02-25T01:52:07.272Z,62.55
2019-02-25T01:53:07.284Z,62.47
2019-02-25T01:54:07.248Z,62.96
2019-02-25T01:55:07.238Z,62.02
2019-02-25T01:56:07.225Z,61.71
2019-02-25T01:57:07.213Z,62.02
2019-02-25T01:58:07.204Z,61.19
2019-02-25T01:59:07.219Z,61.40
2019-02-25T02:00:07.182Z,60.99
2019-02-25T02:01:07.173Z,62.02
2019-02-25T02:02:07.157Z,62.57
2019-02-25T02:03:07.175Z,61.85
2019-02-25T02:04:07.138Z,62.47
2019-02-25T02:05:07.125Z,61.64
2019-02-25T02:06:07.114Z,60.71
2019-02-25T02:07:07.104Z,61.02
2019-02-25T02:08:07.092Z,60.91
2019-02-25T02:09:07.106Z,61.82
2019-02-25T02:10:07.069Z,61.12
2019-02-25T02:11:07.062Z,61.71
2019-02-25T02:12:07.047Z,60.99
2019-02-25T02:13:14.001Z,60.71
2019-02-25T02:14:08.046Z,61.54
2019-02-25T02:15:07.013Z,60.08
2019-02-25T02:16:07.002Z,58.70
2019-02-25T02:17:06.993Z,61.30
2019-02-25T02:18:06.980Z,61.30
2019-02-25T02:19:06.991Z,61.09
2019-02-25T02:20:06.960Z,60.99
2019-02-25T02:21:06.950Z,62.02
2019-02-25T02:22:06.935Z,61.09
2019-02-25T02:23:06.923Z,61.12
2019-02-25T02:24:06.937Z,60.19
2019-02-25T02:25:06.900Z,60.50
2019-02-25T02:26:06.889Z,61.54
2019-02-25T02:27:06.877Z,62.68
2019-02-25T02:28:06.867Z,62.99
2019-02-25T02:29:06.879Z,62.57
2019-02-25T02:30:06.844Z,63.09
2019-02-25T02:31:06.835Z,62.50
2019-02-25T02:32:06.821Z,62.50
2019-02-25T02:33:06.814Z,63.20
2019-02-25T02:34:06.825Z,63.33
2019-02-25T02:35:06.786Z,62.92
2019-02-25T02:36:06.776Z,63.75
2019-02-25T02:37:06.766Z,64.06
2019-02-25T02:38:06.762Z,65.00
2019-02-25T02:39:06.768Z,64.29
2019-02-25T02:40:06.733Z,64.69
2019-02-25T02:41:06.723Z,63.64
2019-02-25T02:42:06.711Z,64.06
2019-02-25T02:43:06.697Z,63.88
2019-02-25T02:44:06.714Z,63.64
2019-02-25T02:45:06.676Z,63.05
2019-02-25T02:46:06.664Z,63.98
2019-02-25T02:47:06.654Z,63.98
2019-02-25T02:48:06.642Z,64.40
2019-02-25T02:49:06.661Z,64.72
2019-02-25T02:50:06.632Z,64.19
2019-02-25T02:51:06.610Z,63.67
2019-02-25T02:52:06.598Z,63.26
2019-02-25T02:53:06.586Z,63.29
2019-02-25T02:54:06.600Z,64.75
2019-02-25T02:55:06.565Z,65.55
2019-02-25T02:56:06.554Z,65.44
2019-02-25T02:57:06.542Z,65.20
2019-02-25T02:58:06.534Z,65.03
2019-02-25T02:59:06.555Z,64.69
2019-02-25T03:00:06.508Z,65.52
2019-02-25T03:01:06.513Z,65.55
2019-02-25T03:02:06.487Z,65.34
2019-02-25T03:03:06.480Z,65.23
2019-02-25T03:04:06.462Z,64.82
2019-02-25T03:05:06.476Z,64.29
2019-02-25T03:06:06.442Z,64.92
2019-02-25T03:07:06.432Z,64.40
2019-02-25T03:08:06.423Z,64.72
2019-02-25T03:09:06.411Z,64.82
2019-02-25T03:10:06.425Z,64.09
2019-02-25T03:11:06.386Z,64.37
2019-02-25T03:12:06.375Z,64.48
2019-02-25T03:13:06.369Z,64.37
2019-02-25T03:14:06.352Z,63.75
2019-02-25T03:15:06.364Z,62.92
2019-02-25T03:16:06.331Z,62.50
2019-02-25T03:17:06.319Z,62.60
2019-02-25T03:18:06.306Z,62.37
2019-02-25T03:19:06.295Z,62.37
2019-02-25T03:20:06.310Z,63.07
2019-02-25T03:21:06.274Z,62.86
2019-02-25T03:22:06.263Z,62.86
2019-02-25T03:23:06.250Z,63.28
2019-02-25T03:24:06.240Z,63.38
2019-02-25T03:25:06.255Z,63.48
2019-02-25T03:26:06.220Z,63.90
2019-02-25T03:27:06.207Z,64.11
2019-02-25T03:28:06.196Z,64.42
2019-02-25T03:29:06.185Z,64.80
2019-02-25T03:30:06.198Z,65.04
2019-02-25T03:31:06.163Z,65.45
2019-02-25T03:32:06.151Z,65.35
2019-02-25T03:33:06.250Z,65.97
2019-02-25T03:34:06.131Z,66.28
2019-02-25T03:35:06.120Z,66.18
2019-02-25T03:36:06.131Z,66.15
2019-02-25T03:37:06.095Z,66.18
2019-02-25T03:38:06.086Z,66.28
2019-02-25T03:39:06.074Z,66.05
2019-02-25T03:40:06.079Z,66.57
2019-02-25T03:41:06.079Z,65.22
2019-02-25T03:42:06.041Z,65.42
2019-02-25T03:43:06.027Z,65.39
2019-02-25T03:44:06.019Z,65.39
2019-02-25T03:45:06.005Z,64.77
2019-02-25T03:46:06.021Z,64.80
2019-02-25T03:47:05.986Z,65.50
2019-02-25T03:48:05.974Z,64.67
2019-02-25T03:49:05.960Z,64.25
2019-02-25T03:50:05.952Z,64.04
2019-02-25T03:51:07.947Z,64.15
2019-02-25T03:52:05.929Z,64.15
2019-02-25T03:53:05.918Z,64.07
2019-02-25T03:54:05.905Z,64.15
2019-02-25T03:55:05.894Z,64.67
2019-02-25T03:56:05.906Z,64.46
2019-02-25T03:57:05.871Z,64.77
2019-02-25T03:58:05.860Z,64.98
2019-02-25T03:59:05.857Z,65.08
2019-02-25T04:00:05.838Z,64.87
2019-02-25T04:01:05.850Z,65.50
2019-02-25T04:02:05.814Z,65.08
2019-02-25T04:03:05.809Z,64.87
2019-02-25T04:04:05.792Z,64.04
2019-02-25T04:05:05.782Z,64.15
2019-02-25T04:06:05.795Z,64.67
2019-02-25T04:07:05.761Z,64.95
2019-02-25T04:08:05.748Z,64.64
2019-02-25T04:09:05.738Z,64.02
2019-02-25T04:10:05.727Z,63.60
2019-02-25T04:11:05.739Z,64.12
2019-02-25T04:12:05.702Z,63.40
2019-02-25T04:13:05.696Z,64.12
2019-02-25T04:14:05.683Z,63.19
2019-02-25T04:15:05.670Z,63.19
2019-02-25T04:16:05.683Z,63.60
2019-02-25T04:17:05.651Z,62.74
2019-02-25T04:18:05.636Z,62.88
2019-02-25T04:19:05.625Z,62.88
2019-02-25T04:20:05.615Z,62.77
2019-02-25T04:21:05.630Z,62.77
2019-02-25T04:22:05.594Z,62.67
2019-02-25T04:23:05.585Z,62.98
2019-02-25T04:24:05.568Z,62.67
2019-02-25T04:25:05.559Z,64.04
2019-02-25T04:26:05.549Z,64.12
2019-02-25T04:27:05.564Z,63.42
2019-02-25T04:28:05.525Z,63.42
2019-02-25T04:29:05.515Z,62.80
2019-02-25T04:30:05.503Z,63.21
2019-02-25T04:31:05.493Z,62.93
2019-02-25T04:32:05.519Z,64.04
2019-02-25T04:33:05.468Z,63.24
2019-02-25T04:34:05.459Z,62.83
2019-02-25T04:35:05.444Z,62.93
2019-02-25T04:36:05.437Z,62.21
2019-02-25T04:37:05.449Z,63.14
2019-02-25T04:38:05.411Z,63.24
2019-02-25T04:39:05.403Z,62.41
2019-02-25T04:40:05.391Z,63.66
2019-02-25T04:41:05.380Z,63.24
2019-02-25T04:42:05.401Z,62.34
2019-02-25T04:43:05.363Z,62.76
2019-02-25T04:44:05.344Z,62.45
2019-02-25T04:45:05.340Z,63.69
2019-02-25T04:46:05.322Z,64.11
2019-02-25T04:47:05.339Z,63.38
2019-02-25T04:48:05.300Z,62.96
2019-02-25T04:49:05.292Z,62.96
2019-02-25T04:50:05.279Z,63.28
2019-02-25T04:51:05.271Z,63.90
2019-02-25T04:52:05.302Z,62.57
2019-02-25T04:53:05.275Z,61.12
2019-02-25T04:54:05.238Z,60.26
2019-02-25T04:55:05.222Z,62.45
2019-02-25T04:56:05.210Z,62.02
2019-02-25T04:57:05.230Z,61.19
2019-02-25T04:58:05.191Z,58.18
2019-02-25T04:59:05.177Z,58.18
2019-02-25T05:00:05.177Z,57.67
2019-02-25T05:01:05.168Z,57.87
2019-02-25T05:02:05.167Z,57.87
2019-02-25T05:03:05.132Z,57.43
2019-02-25T05:04:05.121Z,57.77
2019-02-25T05:05:05.111Z,57.24
2019-02-25T05:06:05.099Z,57.98
2019-02-25T05:07:05.113Z,57.74
2019-02-25T05:08:05.076Z,58.57
2019-02-25T05:09:05.065Z,57.74
2019-02-25T05:10:05.070Z,58.88
2019-02-25T05:11:05.044Z,59.89
2019-02-25T05:12:05.088Z,60.00
2019-02-25T05:13:05.035Z,61.07
2019-02-25T05:14:05.010Z,59.17
2019-02-25T05:15:05.000Z,58.57
2019-02-25T05:16:04.996Z,58.44
2019-02-25T05:17:05.002Z,59.58
2019-02-25T05:18:04.963Z,59.79
2019-02-25T05:19:04.954Z,59.38
2019-02-25T05:20:04.943Z,59.58
2019-02-25T05:21:04.933Z,59.38
2019-02-25T05:22:04.943Z,60.00
2019-02-25T05:23:04.911Z,60.24
2019-02-25T05:24:04.902Z,60.75
2019-02-25T05:25:04.886Z,60.72
2019-02-25T05:26:04.877Z,60.55
2019-02-25T05:27:04.866Z,60.96
2019-02-25T05:28:04.878Z,61.17
2019-02-25T05:29:04.842Z,61.97
2019-02-25T05:30:04.830Z,61.45
2019-02-25T05:31:04.821Z,62.41
2019-02-25T05:32:04.818Z,62.62
2019-02-25T05:33:04.821Z,62.73
2019-02-25T05:34:04.802Z,63.14
2019-02-25T05:35:04.773Z,63.87
2019-02-25T05:36:04.762Z,63.76
2019-02-25T05:37:04.757Z,64.07
2019-02-25T05:38:04.766Z,64.18
2019-02-25T05:39:04.733Z,63.87
2019-02-25T05:40:04.722Z,64.07
2019-02-25T05:41:04.715Z,63.97
2019-02-25T05:42:04.696Z,64.59
2019-02-25T05:43:04.711Z,64.18
2019-02-25T05:44:04.680Z,64.25
2019-02-25T05:45:04.663Z,64.15
2019-02-25T05:46:04.651Z,64.87
2019-02-25T05:47:04.644Z,64.46
2019-02-25T05:48:04.655Z,64.98
2019-02-25T05:49:04.619Z,64.67
2019-02-25T05:50:04.612Z,64.77
2019-02-25T05:51:04.600Z,65.53
2019-02-25T05:52:04.591Z,65.08
2019-02-25T05:53:04.600Z,64.15
2019-02-25T05:54:04.561Z,63.73
2019-02-25T05:55:04.550Z,64.36
2019-02-25T05:56:04.538Z,63.11
2019-02-25T05:57:04.530Z,61.58
2019-02-25T05:58:04.540Z,61.79
2019-02-25T05:59:04.507Z,61.58
2019-02-25T06:00:04.512Z,61.58
2019-02-25T06:01:04.486Z,61.66
2019-02-25T06:02:05.512Z,61.87
2019-02-25T06:03:04.493Z,62.38
2019-02-25T06:04:04.451Z,62.90
2019-02-25T06:05:04.442Z,62.90
2019-02-25T06:06:04.429Z,62.73
2019-02-25T06:07:04.415Z,63.04
2019-02-25T06:08:04.431Z,63.14
2019-02-25T06:09:04.396Z,63.56
2019-02-25T06:10:04.383Z,63.66
2019-02-25T06:11:04.371Z,64.07
2019-02-25T06:12:04.361Z,64.70
2019-02-25T06:13:04.389Z,65.32
2019-02-25T06:14:04.346Z,65.42
2019-02-25T06:15:04.330Z,65.01
2019-02-25T06:16:04.317Z,65.08
2019-02-25T06:17:04.306Z,65.29
2019-02-25T06:18:04.295Z,64.56
2019-02-25T06:19:04.324Z,65.32
2019-02-25T06:20:04.271Z,64.90
2019-02-25T06:21:04.259Z,64.70
2019-02-25T06:22:04.248Z,64.15
2019-02-25T06:23:04.263Z,64.36
2019-02-25T06:24:04.229Z,64.28
2019-02-25T06:25:04.216Z,63.63
2019-02-25T06:26:04.220Z,63.32
2019-02-25T06:27:04.191Z,65.01
2019-02-25T06:28:04.182Z,65.19
2019-02-25T06:29:04.204Z,65.39
2019-02-25T06:30:04.157Z,65.19
2019-02-25T06:31:04.150Z,65.19
2019-02-25T06:32:04.136Z,66.47
2019-02-25T06:33:04.127Z,65.22
2019-02-25T06:34:04.141Z,65.01
2019-02-25T06:35:04.105Z,65.94
2019-02-25T06:36:04.093Z,65.53
2019-02-25T06:37:04.082Z,65.45
2019-02-25T06:38:04.069Z,65.56
2019-02-25T06:39:04.084Z,65.25
2019-02-25T06:40:04.048Z,65.14
2019-02-25T06:41:04.035Z,65.45
2019-02-25T06:42:04.030Z,65.25
2019-02-25T06:43:04.013Z,65.07
2019-02-25T06:44:04.004Z,65.25
2019-02-25T06:45:04.015Z,66.11
2019-02-25T06:46:03.979Z,65.48
2019-02-25T06:47:04.006Z,64.24
2019-02-25T06:48:03.956Z,64.76
2019-02-25T06:49:03.945Z,65.38
2019-02-25T06:50:03.960Z,65.38
2019-02-25T06:51:03.928Z,64.97
2019-02-25T06:52:03.910Z,65.28
2019-02-25T06:53:03.901Z,66.11
2019-02-25T06:54:03.890Z,65.59
2019-02-25T06:55:03.903Z,66.00
2019-02-25T06:56:03.869Z,66.94
2019-02-25T06:57:03.855Z,66.56
2019-02-25T06:58:03.843Z,66.24
2019-02-25T06:59:03.835Z,65.10
2019-02-25T07:00:03.850Z,66.14
2019-02-25T07:01:03.811Z,66.87
2019-02-25T07:02:03.800Z,67.29
2019-02-25T07:03:03.791Z,67.60
2019-02-25T07:04:03.778Z,66.45
2019-02-25T07:05:03.791Z,67.39
2019-02-25T07:06:03.759Z,67.39
2019-02-25T07:07:03.742Z,66.97
2019-02-25T07:08:03.733Z,66.24
2019-02-25T07:09:03.723Z,66.77
2019-02-25T07:10:03.738Z,66.97
2019-02-25T07:11:03.700Z,66.87
2019-02-25T07:12:03.687Z,66.66
2019-02-25T07:13:03.675Z,66.87
2019-02-25T07:14:03.665Z,66.97
2019-02-25T07:15:03.681Z,66.45
2019-02-25T07:16:03.642Z,65.93
2019-02-25T07:17:03.632Z,66.66
2019-02-25T07:18:03.623Z,67.18
2019-02-25T07:19:03.610Z,67.70
2019-02-25T07:20:03.623Z,66.97
2019-02-25T07:21:03.585Z,66.97
2019-02-25T07:22:03.576Z,66.77
2019-02-25T07:23:03.573Z,66.87
2019-02-25T07:24:03.553Z,67.49
2019-02-25T07:25:03.576Z,66.77
2019-02-25T07:26:03.532Z,67.80
2019-02-25T07:27:03.521Z,66.77
2019-02-25T07:28:03.508Z,67.39
2019-02-25T07:29:03.622Z,67.70
2019-02-25T07:30:03.512Z,67.18
2019-02-25T07:31:03.475Z,67.08
2019-02-25T07:32:03.466Z,67.49
2019-02-25T07:33:03.458Z,67.49
2019-02-25T07:34:03.442Z,66.87
2019-02-25T07:35:03.435Z,66.24
2019-02-25T07:36:03.447Z,67.39
2019-02-25T07:37:03.409Z,66.63
2019-02-25T07:38:03.401Z,65.28
2019-02-25T07:39:03.388Z,66.21
2019-02-25T07:40:03.379Z,66.53
2019-02-25T07:41:03.392Z,64.94
2019-02-25T07:42:03.353Z,66.28
2019-02-25T07:43:03.342Z,65.45
2019-02-25T07:44:03.338Z,65.04
2019-02-25T07:45:03.320Z,65.01
2019-02-25T07:46:03.331Z,63.45
2019-02-25T07:47:03.301Z,64.04
2019-02-25T07:48:03.288Z,64.46
2019-02-25T07:49:03.273Z,62.38
2019-02-25T07:50:03.268Z,63.09
2019-02-25T07:51:03.276Z,62.77
2019-02-25T07:52:03.239Z,62.88
2019-02-25T07:53:03.259Z,61.53
2019-02-25T07:54:03.217Z,62.57
2019-02-25T07:55:03.206Z,62.54
2019-02-25T07:56:03.220Z,61.29
2019-02-25T07:57:03.255Z,60.46
2019-02-25T07:58:03.172Z,60.15
2019-02-25T07:59:03.162Z,60.43
2019-02-25T08:00:03.152Z,58.88
2019-02-25T08:01:03.609Z,59.81
2019-02-25T08:02:03.128Z,59.27
2019-02-25T08:03:03.117Z,58.98
2019-02-25T08:04:03.105Z,59.37
2019-02-25T08:05:03.096Z,59.47
2019-02-25T08:06:03.109Z,59.37
2019-02-25T08:07:03.071Z,59.45
2019-02-25T08:08:03.061Z,59.55
2019-02-25T08:09:03.050Z,59.34
2019-02-25T08:10:03.038Z,60.69
2019-02-25T08:11:03.055Z,59.96
2019-02-25T08:12:03.019Z,60.27
2019-02-25T08:13:03.004Z,60.27
2019-02-25T08:14:02.997Z,60.27
2019-02-25T08:15:02.981Z,59.96
2019-02-25T08:16:02.995Z,60.66
2019-02-25T08:17:04.591Z,60.14
2019-02-25T08:18:02.957Z,60.14
2019-02-25T08:19:02.937Z,60.46
2019-02-25T08:20:02.950Z,59.83
2019-02-25T08:21:02.938Z,60.25
2019-02-25T08:22:02.906Z,60.25
2019-02-25T08:23:02.894Z,60.66
2019-02-25T08:24:02.882Z,60.25
2019-02-25T08:25:02.871Z,60.46
2019-02-25T08:26:02.882Z,59.21
2019-02-25T08:27:02.847Z,58.67
2019-02-25T08:28:02.841Z,58.80
2019-02-25T08:29:02.833Z,58.77
2019-02-25T08:30:02.816Z,58.77
2019-02-25T08:31:02.829Z,56.29
2019-02-25T08:32:02.793Z,54.11
2019-02-25T08:33:02.781Z,55.33
2019-02-25T08:34:02.770Z,53.26
2019-02-25T08:35:02.760Z,53.26
2019-02-25T08:36:02.753Z,50.47
2019-02-25T08:37:02.867Z,49.31
2019-02-25T08:38:02.726Z,50.03
2019-02-25T08:39:02.715Z,51.97
2019-02-25T08:40:02.729Z,51.15
2019-02-25T08:41:02.695Z,51.04
2019-02-25T08:42:02.705Z,50.50
2019-02-25T08:43:02.671Z,50.01
2019-02-25T08:44:02.659Z,51.04
2019-02-25T08:45:02.657Z,50.50
2019-02-25T08:46:02.636Z,50.50
2019-02-25T08:47:02.654Z,51.95
2019-02-25T08:48:02.926Z,50.50
2019-02-25T08:49:02.605Z,49.47
2019-02-25T08:50:02.596Z,49.96
2019-02-25T08:51:02.584Z,50.20
2019-02-25T08:52:02.597Z,50.89
2019-02-25T08:53:02.562Z,49.34
2019-02-25T08:54:02.548Z,50.89
2019-02-25T08:55:02.541Z,50.07
2019-02-25T08:56:02.524Z,49.14
2019-02-25T08:57:02.540Z,48.41
2019-02-25T08:58:02.503Z,49.04
2019-02-25T08:59:02.491Z,49.32
2019-02-25T09:00:02.483Z,50.04
2019-02-25T09:01:02.473Z,49.94
2019-02-25T09:02:02.484Z,49.11
2019-02-25T09:03:02.448Z,48.49
2019-02-25T09:04:02.440Z,49.19
2019-02-25T09:05:02.426Z,49.61
2019-02-25T09:06:02.429Z,48.88
2019-02-25T09:07:02.597Z,48.16
2019-02-25T09:08:02.393Z,48.47
2019-02-25T09:09:02.386Z,49.17
2019-02-25T09:10:02.370Z,48.27
2019-02-25T09:11:02.359Z,48.04
2019-02-25T09:12:02.353Z,48.14
2019-02-25T09:13:02.363Z,47.94
2019-02-25T09:14:02.325Z,46.39
2019-02-25T09:15:02.336Z,46.59
2019-02-25T09:16:02.313Z,47.73
2019-02-25T09:17:02.294Z,45.36
2019-02-25T09:18:02.327Z,46.70
2019-02-25T09:19:02.270Z,46.70
2019-02-25T09:20:02.257Z,45.65
2019-02-25T09:21:02.245Z,46.16
2019-02-25T09:22:02.233Z,45.65
2019-02-25T09:23:02.248Z,45.52
2019-02-25T09:24:02.213Z,46.34
2019-02-25T09:25:02.201Z,43.98
2019-02-25T09:26:02.189Z,45.11
2019-02-25T09:27:02.176Z,45.50
2019-02-25T09:28:02.189Z,44.37
2019-02-25T09:29:02.154Z,43.75
2019-02-25T09:30:02.143Z,45.09
2019-02-25T09:31:02.193Z,44.68
2019-02-25T09:32:02.119Z,43.93
2019-02-25T09:33:02.109Z,44.24
2019-02-25T09:34:02.125Z,43.93
2019-02-25T09:35:02.084Z,43.73
2019-02-25T09:36:02.075Z,44.76
2019-02-25T09:37:02.063Z,43.84
2019-02-25T09:38:02.092Z,43.61
2019-02-25T09:39:02.039Z,44.04
2019-02-25T09:40:02.030Z,43.09
2019-02-25T09:41:02.018Z,44.33
2019-02-25T09:42:02.177Z,42.37
2019-02-25T09:43:01.997Z,40.81
2019-02-25T09:44:02.017Z,41.51
2019-02-25T09:45:01.977Z,41.90
2019-02-25T09:46:01.979Z,43.34
2019-02-25T09:47:01.952Z,42.83
2019-02-25T09:48:01.968Z,43.44
2019-02-25T09:49:01.930Z,43.24
2019-02-25T09:50:01.917Z,42.09
2019-02-25T09:51:01.905Z,42.50
2019-02-25T09:52:01.894Z,42.81
2019-02-25T09:53:01.887Z,42.19
2019-02-25T09:54:01.898Z,42.81
2019-02-25T09:55:01.860Z,43.01
2019-02-25T09:56:01.854Z,43.22
2019-02-25T09:57:01.868Z,43.01
2019-02-25T09:58:01.825Z,42.09
2019-02-25T09:59:01.841Z,40.96
2019-02-25T10:00:01.803Z,42.71
2019-02-25T10:01:01.794Z,43.61
2019-02-25T10:02:01.787Z,41.76
2019-02-25T10:03:01.777Z,41.76
2019-02-25T10:04:01.785Z,41.46
2019-02-25T10:05:01.751Z,41.46
2019-02-25T10:06:01.737Z,41.97
2019-02-25T10:07:02.419Z,41.46
2019-02-25T10:08:01.714Z,41.56
2019-02-25T10:09:01.728Z,41.02
2019-02-25T10:10:01.690Z,41.76
2019-02-25T10:11:01.681Z,41.02
2019-02-25T10:12:01.668Z,41.23
2019-02-25T10:13:01.656Z,40.10
2019-02-25T10:14:01.672Z,41.21
2019-02-25T10:15:01.645Z,39.57
2019-02-25T10:16:01.624Z,38.34
2019-02-25T10:17:01.614Z,38.03
2019-02-25T10:18:01.603Z,40.06
2019-02-25T10:19:01.614Z,39.55
2019-02-25T10:20:01.578Z,38.61
2019-02-25T10:21:01.566Z,38.40
2019-02-25T10:22:01.554Z,38.51
2019-02-25T10:23:01.551Z,40.15
2019-02-25T10:24:01.557Z,40.97
2019-02-25T10:25:01.531Z,39.43
2019-02-25T10:26:01.511Z,37.90
2019-02-25T10:27:01.498Z,37.28
2019-02-25T10:28:01.502Z,36.85
2019-02-25T10:29:01.479Z,38.59
2019-02-25T10:30:01.491Z,36.14
2019-02-25T10:31:01.455Z,36.96
2019-02-25T10:32:02.622Z,36.22
2019-02-25T10:33:01.433Z,38.57
2019-02-25T10:34:01.425Z,38.17
2019-02-25T10:35:01.437Z,37.04
2019-02-25T10:36:01.397Z,36.61
2019-02-25T10:37:01.385Z,37.76
2019-02-25T10:38:03.121Z,37.13
2019-02-25T10:39:01.364Z,37.13
2019-02-25T10:40:01.383Z,37.23
2019-02-25T10:41:01.346Z,38.23
2019-02-25T10:42:01.764Z,37.93
2019-02-25T10:43:01.380Z,38.85
2019-02-25T10:44:02.360Z,37.72
2019-02-25T10:45:02.639Z,37.31
2019-02-25T10:46:01.283Z,36.07
2019-02-25T10:47:01.311Z,34.64
2019-02-25T10:48:01.262Z,35.44
2019-02-25T10:49:11.192Z,35.54
2019-02-25T10:50:03.235Z,34.62
2019-02-25T10:51:02.752Z,36.24
2019-02-25T10:52:01.217Z,35.63
2019-02-25T10:53:03.663Z,35.63
2019-02-25T10:54:01.193Z,36.34
2019-02-25T10:55:01.207Z,35.00
2019-02-25T10:56:01.173Z,36.14
2019-02-25T10:57:01.166Z,34.50
2019-02-25T10:58:02.101Z,35.61
2019-02-25T10:59:02.320Z,36.22
2019-02-25T11:00:02.888Z,36.12
2019-02-25T11:01:01.115Z,35.82
2019-02-25T11:02:01.104Z,35.82
2019-02-25T11:03:01.095Z,36.00
2019-02-25T11:04:01.086Z,35.69
2019-02-25T11:05:01.093Z,37.43
2019-02-25T11:06:03.138Z,35.28
2019-02-25T11:07:02.993Z,35.28
2019-02-25T11:08:01.036Z,36.00
2019-02-25T11:09:01.023Z,33.33
2019-02-25T11:10:01.015Z,35.56
2019-02-25T11:11:01.025Z,35.77
2019-02-25T11:12:00.991Z,35.77
2019-02-25T11:13:02.117Z,35.77
2019-02-25T11:14:02.959Z,35.66
2019-02-25T11:15:00.957Z,34.93
2019-02-25T11:16:00.969Z,33.61
2019-02-25T11:17:00.933Z,34.42
2019-02-25T11:18:00.922Z,35.42
2019-02-25T11:19:00.989Z,34.31
2019-02-25T11:20:03.326Z,32.47
2019-02-25T11:21:01.354Z,33.27
2019-02-25T11:22:00.879Z,32.46
2019-02-25T11:23:00.866Z,31.74
2019-02-25T11:24:00.855Z,32.34
2019-02-25T11:25:00.895Z,32.04
2019-02-25T11:26:02.183Z,30.80
2019-02-25T11:27:01.457Z,31.02
2019-02-25T11:28:02.754Z,30.80
2019-02-25T11:29:00.799Z,30.38
2019-02-25T11:30:00.785Z,30.28
2019-02-25T11:31:00.800Z,28.96
2019-02-25T11:32:00.764Z,29.16
2019-02-25T11:33:00.752Z,28.94
2019-02-25T11:34:03.037Z,28.74
2019-02-25T11:35:01.295Z,29.55
2019-02-25T11:36:00.744Z,30.67
2019-02-25T11:37:00.709Z,29.14
2019-02-25T11:38:01.713Z,30.06
2019-02-25T11:39:02.416Z,30.06
2019-02-25T11:40:01.844Z,29.66
2019-02-25T11:41:01.938Z,30.77
2019-02-25T11:42:00.651Z,30.05
2019-02-25T11:43:00.641Z,31.18
2019-02-25T11:44:00.629Z,33.11
2019-02-25T11:45:02.417Z,31.99
2019-02-25T11:46:00.629Z,29.96
2019-02-25T11:47:00.593Z,29.96
2019-02-25T11:48:00.583Z,30.67
2019-02-25T11:49:00.571Z,31.68
2019-02-25T11:50:00.560Z,31.28
2019-02-25T11:51:00.576Z,33.11
2019-02-25T11:52:00.539Z,32.20
2019-02-25T11:53:00.532Z,31.89
2019-02-25T11:54:00.518Z,31.40
2019-02-25T11:55:00.525Z,31.50
2019-02-25T11:56:00.494Z,33.01
2019-02-25T11:57:00.507Z,31.68
2019-02-25T11:58:00.468Z,31.38
2019-02-25T11:59:00.457Z,31.38
2019-02-25T12:00:00.448Z,31.79
2019-02-25T12:01:00.437Z,30.86
2019-02-25T12:02:00.448Z,31.48
2019-02-25T12:03:00.412Z,32.79
2019-02-25T12:04:00.400Z,32.89
2019-02-25T12:05:00.392Z,33.70
2019-02-25T12:06:00.379Z,32.50
2019-02-25T12:07:00.393Z,32.89
2019-02-25T12:08:00.356Z,33.41
2019-02-25T12:09:00.344Z,33.41
2019-02-25T12:10:00.366Z,31.99
2019-02-25T12:11:00.322Z,32.50
2019-02-25T12:12:00.336Z,31.16
2019-02-25T12:13:00.299Z,31.98
2019-02-25T12:14:00.287Z,31.05
2019-02-25T12:15:00.311Z,30.85
2019-02-25T12:16:00.265Z,32.26
2019-02-25T12:17:00.284Z,32.67
2019-02-25T12:18:00.242Z,32.17
2019-02-25T12:19:00.234Z,32.87
2019-02-25T12:20:00.380Z,32.37
2019-02-25T12:21:00.208Z,32.57
2019-02-25T12:22:00.226Z,32.37
2019-02-25T12:23:00.186Z,32.17
2019-02-25T12:24:00.173Z,31.86
2019-02-25T12:25:00.260Z,32.98
2019-02-25T12:26:00.154Z,32.37
2019-02-25T12:27:00.167Z,32.87
2019-02-25T12:28:00.129Z,31.76
2019-02-25T12:29:00.119Z,30.64
2019-02-25T12:30:00.106Z,31.13
2019-02-25T12:31:00.095Z,31.95
2019-02-25T12:32:00.112Z,30.63
2019-02-25T12:33:00.073Z,32.86
2019-02-25T12:34:00.063Z,33.65
2019-02-25T12:35:00.054Z,33.45
2019-02-25T12:36:00.038Z,33.55
2019-02-25T12:37:00.051Z,30.93
2019-02-25T12:38:00.020Z,30.82
2019-02-25T12:39:00.005Z,30.31
2019-02-25T12:39:59.992Z,30.21
2019-02-25T12:40:59.981Z,30.40
2019-02-25T12:42:00.020Z,29.69
2019-02-25T12:42:59.958Z,31.41
2019-02-25T12:43:59.947Z,32.71
2019-02-25T12:44:59.935Z,31.29
2019-02-25T12:45:59.924Z,29.97
2019-02-25T12:46:59.916Z,29.37
2019-02-25T12:47:59.929Z,30.28
2019-02-25T12:48:59.891Z,31.09
2019-02-25T12:50:00.008Z,29.86
2019-02-25T12:50:59.867Z,29.46
2019-02-25T12:51:59.857Z,30.27